| time (UTC) | temp C | wind direction | speed KPH | gust KPH | rain 1hr cm | rain 24hr cm | rain mn cm | humidity % | barometer mb |
| 20260506191821 | 14 | 315 | 0.0 | 0.0 | 0.05 | 0.30 | 0.00 | 88 | 1009.9 |
| 20260506190820 | 14 | 315 | 0.0 | 0.0 | 0.00 | 0.25 | 0.00 | 88 | 1009.9 |
| 20260506190322 | 14 | 270 | 0.0 | 0.0 | 0.00 | 0.25 | 0.00 | 88 | 1009.8 |
| 20260506185820 | 14 | 270 | 0.0 | 0.0 | 0.00 | 0.25 | 0.00 | 88 | 1009.9 |
| 20260506185321 | 14 | 292 | 0.0 | 0.0 | 0.00 | 0.25 | 0.00 | 88 | 1009.9 |
| 20260506184819 | 14 | 45 | 0.0 | 0.0 | 0.00 | 0.25 | 0.00 | 88 | 1009.7 |
| 20260506184508 | 14 | 45 | 0.0 | 0.0 | 0.00 | 0.25 | 0.00 | 88 | 1009.4 |
| 20260506184320 | 14 | 45 | 0.0 | 0.0 | 0.00 | 0.25 | 0.00 | 88 | 1009.4 |
| 20260506183819 | 15 | 112 | 0.0 | 0.0 | 0.00 | 0.25 | 0.00 | 88 | 1009.1 |
| 20260506183354 | 15 | 247 | 0.0 | 0.0 | 0.00 | 0.25 | 0.00 | 87 | 1009.2 |
| 20260506183321 | 15 | 247 | 0.0 | 0.0 | 0.00 | 0.25 | 0.00 | 87 | 1009.2 |
| 20260506182818 | 15 | 90 | 0.0 | 0.0 | 0.00 | 0.25 | 0.00 | 87 | 1009.1 |
| 20260506182320 | 15 | 0 | 0.0 | 0.0 | 0.00 | 0.25 | 0.00 | 87 | 1009.0 |
| 20260506181818 | 15 | 22 | 0.0 | 0.0 | 0.00 | 0.25 | 0.00 | 87 | 1009.0 |
| 20260506180817 | 15 | 22 | 0.0 | 0.0 | 0.00 | 0.25 | 0.00 | 87 | 1009.0 |
| 20260506180318 | 15 | 22 | 0.0 | 1.6 | 0.00 | 0.25 | 0.00 | 86 | 1008.8 |
| 20260506175816 | 15 | 45 | 0.0 | 0.0 | 0.00 | 0.25 | 0.00 | 85 | 1008.8 |
| 20260506175317 | 15 | 45 | 0.0 | 0.0 | 0.00 | 0.25 | 0.00 | 84 | 1008.8 |
| 20260506174816 | 15 | 90 | 0.0 | 0.0 | 0.00 | 0.25 | 0.00 | 84 | 1008.8 |
| 20260506174317 | 16 | 112 | 0.0 | 0.0 | 0.00 | 0.25 | 0.00 | 83 | 1008.7 |
| 20260506173815 | 16 | 112 | 0.0 | 0.0 | 0.00 | 0.25 | 0.00 | 83 | 1009.0 |
| 20260506172815 | 16 | 247 | 0.0 | 0.0 | 0.00 | 0.25 | 0.00 | 81 | 1008.9 |
| 20260506172316 | 16 | 247 | 0.0 | 0.0 | 0.00 | 0.25 | 0.00 | 81 | 1008.8 |
| 20260506171845 | 16 | 247 | 0.0 | 0.0 | 0.00 | 0.25 | 0.00 | 80 | 1008.9 |
| 20260506171814 | 16 | 247 | 0.0 | 0.0 | 0.00 | 0.25 | 0.00 | 80 | 1008.9 |
| 20260506170814 | 16 | 225 | 1.6 | 1.6 | 0.00 | 0.25 | 0.00 | 80 | 1008.9 |
| 20260506170317 | 17 | 247 | 0.0 | 0.0 | 0.00 | 0.25 | 0.00 | 80 | 1009.0 |
| 20260506165813 | 17 | 202 | 0.0 | 0.0 | 0.00 | 0.25 | 0.00 | 81 | 1008.9 |
| 20260506165314 | 17 | 225 | 0.0 | 0.0 | 0.00 | 0.25 | 0.00 | 81 | 1008.9 |
| 20260506164812 | 16 | 225 | 0.0 | 0.0 | 0.00 | 0.25 | 0.00 | 81 | 1009.0 |
| 20260506163812 | 17 | 202 | 4.8 | 4.8 | 0.00 | 0.25 | 0.00 | 80 | 1009.0 |
| 20260506163313 | 17 | 202 | 4.8 | 4.8 | 0.00 | 0.25 | 0.00 | 80 | 1009.0 |
| 20260506162811 | 17 | 180 | 0.0 | 0.0 | 0.00 | 0.25 | 0.00 | 80 | 1009.1 |
| 20260506162314 | 17 | 22 | 0.0 | 0.0 | 0.00 | 0.25 | 0.00 | 81 | 1009.2 |
| 20260506161811 | 17 | 315 | 0.0 | 3.2 | 0.00 | 0.25 | 0.00 | 81 | 1009.3 |
| 20260506160810 | 17 | 202 | 0.0 | 0.0 | 0.00 | 0.25 | 0.00 | 82 | 1009.3 |
| 20260506160311 | 17 | 270 | 0.0 | 1.6 | 0.00 | 0.25 | 0.00 | 82 | 1009.3 |
| 20260506155810 | 17 | 202 | 1.6 | 3.2 | 0.00 | 0.25 | 0.00 | 83 | 1009.4 |
| 20260506155310 | 16 | 202 | 3.2 | 4.8 | 0.00 | 0.25 | 0.00 | 84 | 1009.4 |
| 20260506154809 | 17 | 270 | 0.0 | 1.6 | 0.00 | 0.25 | 0.00 | 84 | 1009.7 |
| 20260506153809 | 16 | 247 | 1.6 | 3.2 | 0.00 | 0.25 | 0.00 | 85 | 1009.5 |
| 20260506153310 | 16 | 247 | 3.2 | 3.2 | 0.00 | 0.25 | 0.00 | 87 | 1009.7 |
| 20260506152808 | 16 | 135 | 0.0 | 1.6 | 0.00 | 0.25 | 0.00 | 87 | 1009.8 |
| 20260506152310 | 16 | 45 | 0.0 | 0.0 | 0.00 | 0.25 | 0.00 | 87 | 1009.8 |
| 20260506151807 | 16 | 337 | 0.0 | 0.0 | 0.00 | 0.25 | 0.00 | 87 | 1009.8 |
| 20260506151311 | 15 | 135 | 0.0 | 0.0 | 0.05 | 0.25 | 0.00 | 87 | 1009.7 |
| 20260506150807 | 15 | 247 | 0.0 | 0.0 | 0.05 | 0.25 | 0.00 | 87 | 1009.8 |
| 20260506150308 | 15 | 157 | 0.0 | 0.0 | 0.05 | 0.25 | 0.00 | 87 | 1009.7 |
| 20260506145806 | 15 | 0 | 0.0 | 0.0 | 0.05 | 0.25 | 0.00 | 87 | 1009.8 |
| 20260506145307 | 15 | 112 | 0.0 | 0.0 | 0.05 | 0.25 | 0.00 | 87 | 1009.8 |
| 20260506144806 | 15 | 45 | 0.0 | 0.0 | 0.05 | 0.25 | 0.00 | 87 | 1009.8 |
| 20260506144306 | 15 | 315 | 0.0 | 0.0 | 0.05 | 0.25 | 0.00 | 87 | 1009.8 |
| 20260506143805 | 15 | 45 | 0.0 | 0.0 | 0.05 | 0.25 | 0.00 | 87 | 1009.8 |
| 20260506143306 | 15 | 292 | 0.0 | 0.0 | 0.05 | 0.25 | 0.00 | 87 | 1009.9 |
| 20260506142805 | 15 | 225 | 0.0 | 0.0 | 0.05 | 0.25 | 0.00 | 87 | 1009.8 |
| 20260506142306 | 15 | 292 | 0.0 | 0.0 | 0.05 | 0.25 | 0.00 | 87 | 1009.8 |
| 20260506141804 | 15 | 225 | 0.0 | 0.0 | 0.00 | 0.20 | 0.00 | 87 | 1009.9 |
| 20260506141305 | 15 | 292 | 0.0 | 0.0 | 0.00 | 0.20 | 0.00 | 87 | 1009.9 |
| 20260506140803 | 15 | 247 | 0.0 | 0.0 | 0.00 | 0.20 | 0.00 | 87 | 1009.9 |
| 20260506135803 | 15 | 180 | 0.0 | 0.0 | 0.00 | 0.20 | 0.00 | 86 | 1010.0 |
| 20260506135306 | 15 | 292 | 0.0 | 0.0 | 0.00 | 0.20 | 0.00 | 86 | 1010.0 |
| 20260506134802 | 16 | 315 | 0.0 | 4.8 | 0.00 | 0.20 | 0.00 | 86 | 1010.2 |
| 20260506134303 | 16 | 315 | 4.8 | 4.8 | 0.00 | 0.20 | 0.00 | 86 | 1010.4 |
| 20260506133802 | 16 | 315 | 0.0 | 1.6 | 0.00 | 0.20 | 0.00 | 86 | 1010.3 |
| 20260506133302 | 16 | 315 | 1.6 | 1.6 | 0.00 | 0.20 | 0.00 | 86 | 1010.4 |
| 20260506132801 | 16 | 45 | 0.0 | 0.0 | 0.00 | 0.20 | 0.00 | 87 | 1010.4 |
| 20260506132302 | 16 | 337 | 0.0 | 3.2 | 0.00 | 0.20 | 0.00 | 87 | 1010.4 |
| 20260506131801 | 16 | 292 | 0.0 | 3.2 | 0.00 | 0.20 | 0.00 | 87 | 1010.4 |
| 20260506131301 | 16 | 0 | 0.0 | 0.0 | 0.00 | 0.20 | 0.00 | 87 | 1010.4 |
| 20260506130800 | 16 | 292 | 0.0 | 0.0 | 0.00 | 0.20 | 0.00 | 87 | 1010.3 |
| 20260506130301 | 15 | 292 | 0.0 | 0.0 | 0.00 | 0.20 | 0.00 | 87 | 1010.4 |
| 20260506125759 | 15 | 135 | 0.0 | 0.0 | 0.00 | 0.20 | 0.00 | 87 | 1010.4 |
| 20260506124759 | 15 | 22 | 0.0 | 0.0 | 0.00 | 0.20 | 0.00 | 87 | 1010.5 |
| 20260506124300 | 15 | 315 | 0.0 | 0.0 | 0.00 | 0.20 | 0.00 | 87 | 1010.5 |
| 20260506123758 | 15 | 315 | 0.0 | 0.0 | 0.00 | 0.20 | 0.00 | 87 | 1010.6 |
| 20260506123259 | 15 | 0 | 0.0 | 0.0 | 0.00 | 0.20 | 0.00 | 87 | 1010.6 |
| 20260506122758 | 15 | 270 | 0.0 | 0.0 | 0.00 | 0.20 | 0.00 | 87 | 1010.7 |
| 20260506122258 | 15 | 0 | 0.0 | 0.0 | 0.00 | 0.20 | 0.00 | 87 | 1010.5 |
| 20260506121757 | 15 | 292 | 0.0 | 0.0 | 0.00 | 0.20 | 0.00 | 87 | 1010.7 |
| 20260506121258 | 15 | 45 | 0.0 | 0.0 | 0.00 | 0.20 | 0.00 | 87 | 1010.6 |
| 20260506120757 | 15 | 180 | 0.0 | 0.0 | 0.00 | 0.20 | 0.00 | 87 | 1010.5 |
| 20260506120259 | 15 | 292 | 0.0 | 0.0 | 0.00 | 0.20 | 0.00 | 87 | 1010.5 |
| 20260506115756 | 15 | 315 | 0.0 | 0.0 | 0.00 | 0.20 | 0.00 | 87 | 1010.5 |
| 20260506114755 | 15 | 270 | 0.0 | 0.0 | 0.00 | 0.20 | 0.00 | 87 | 1010.6 |
| 20260506113755 | 15 | 225 | 0.0 | 0.0 | 0.00 | 0.20 | 0.00 | 87 | 1010.6 |
| 20260506112754 | 15 | 292 | 0.0 | 0.0 | 0.00 | 0.20 | 0.00 | 87 | 1010.8 |
| 20260506111754 | 15 | 315 | 1.6 | 1.6 | 0.00 | 0.20 | 0.00 | 87 | 1010.8 |
| 20260506111254 | 15 | 67 | 0.0 | 0.0 | 0.00 | 0.20 | 0.00 | 87 | 1010.8 |
| 20260506110753 | 15 | 292 | 0.0 | 0.0 | 0.00 | 0.20 | 0.00 | 87 | 1010.9 |
| 20260506110254 | 15 | 292 | 0.0 | 0.0 | 0.05 | 0.20 | 0.00 | 87 | 1010.9 |
| 20260506105753 | 15 | 292 | 0.0 | 0.0 | 0.05 | 0.20 | 0.00 | 87 | 1011.0 |
| 20260506105255 | 15 | 67 | 0.0 | 0.0 | 0.05 | 0.20 | 0.00 | 87 | 1010.9 |
| 20260506104752 | 15 | 315 | 0.0 | 0.0 | 0.05 | 0.20 | 0.00 | 87 | 1011.0 |
| 20260506103751 | 15 | 270 | 0.0 | 0.0 | 0.10 | 0.20 | 0.00 | 87 | 1011.2 |
| 20260506103255 | 15 | 180 | 0.0 | 0.0 | 0.10 | 0.20 | 0.00 | 87 | 1011.2 |
| 20260506102751 | 15 | 337 | 0.0 | 0.0 | 0.10 | 0.20 | 0.00 | 87 | 1011.2 |
| 20260506102255 | 15 | 337 | 0.0 | 0.0 | 0.10 | 0.20 | 0.00 | 87 | 1011.1 |
| 20260506101750 | 15 | 315 | 0.0 | 0.0 | 0.10 | 0.20 | 0.00 | 87 | 1011.1 |
| 20260506100750 | 15 | 225 | 0.0 | 3.2 | 0.05 | 0.15 | 0.00 | 86 | 1011.3 |
| 20260506095749 | 15 | 315 | 0.0 | 0.0 | 0.15 | 0.15 | 0.00 | 85 | 1011.4 |
| 20260506095250 | 16 | 270 | 0.0 | 0.0 | 0.15 | 0.15 | 0.00 | 85 | 1011.4 |
| 20260506094749 | 16 | 315 | 0.0 | 0.0 | 0.15 | 0.15 | 0.00 | 84 | 1011.4 |
| 20260506094249 | 16 | 315 | 0.0 | 0.0 | 0.10 | 0.10 | 0.00 | 84 | 1011.4 |
| 20260506093748 | 16 | 225 | 0.0 | 0.0 | 0.10 | 0.10 | 0.00 | 85 | 1011.4 |
| 20260506093249 | 16 | 292 | 0.0 | 0.0 | 0.10 | 0.10 | 0.00 | 84 | 1011.4 |
| 20260506092748 | 16 | 225 | 0.0 | 0.0 | 0.10 | 0.10 | 0.00 | 84 | 1011.5 |
| 20260506091747 | 16 | 225 | 1.6 | 1.6 | 0.10 | 0.10 | 0.00 | 85 | 1011.5 |
| 20260506091248 | 16 | 67 | 0.0 | 0.0 | 0.10 | 0.10 | 0.00 | 85 | 1011.5 |
| 20260506090746 | 15 | 157 | 0.0 | 0.0 | 0.10 | 0.10 | 0.00 | 85 | 1011.4 |
| 20260506090247 | 15 | 112 | 0.0 | 0.0 | 0.10 | 0.10 | 0.00 | 84 | 1011.4 |
| 20260506085746 | 15 | 247 | 0.0 | 3.2 | 0.00 | 0.00 | 0.00 | 84 | 1011.4 |
| 20260506085249 | 15 | 225 | 3.2 | 3.2 | 0.00 | 0.00 | 0.00 | 84 | 1011.6 |
| 20260506084745 | 15 | 202 | 0.0 | 0.0 | 0.00 | 0.00 | 0.00 | 83 | 1011.5 |
| 20260506084246 | 16 | 180 | 0.0 | 0.0 | 0.00 | 0.00 | 0.00 | 83 | 1011.5 |
| 20260506083745 | 16 | 180 | 0.0 | 0.0 | 0.00 | 0.00 | 0.00 | 83 | 1011.4 |
| 20260506083245 | 16 | 135 | 0.0 | 0.0 | 0.00 | 0.00 | 0.00 | 83 | 1011.2 |
| 20260506082744 | 16 | 135 | 0.0 | 0.0 | 0.00 | 0.00 | 0.00 | 83 | 1011.1 |
| 20260506082245 | 16 | 112 | 0.0 | 0.0 | 0.00 | 0.00 | 0.00 | 83 | 1011.2 |
| 20260506081744 | 16 | 0 | 0.0 | 0.0 | 0.00 | 0.00 | 0.00 | 83 | 1011.1 |
| 20260506080743 | 16 | 180 | 0.0 | 1.6 | 0.00 | 0.00 | 0.00 | 82 | 1010.9 |
| 20260506080244 | 16 | 135 | 0.0 | 0.0 | 0.00 | 0.00 | 0.00 | 83 | 1010.9 |
| 20260506073242 | 15 | 90 | 0.0 | 0.0 | 0.00 | 0.00 | 0.00 | 84 | 1010.8 |
| 20260506072741 | 15 | 225 | 0.0 | 0.0 | 0.00 | 0.00 | 0.00 | 85 | 1010.9 |
| 20260506072241 | 15 | 225 | 0.0 | 1.6 | 0.00 | 0.00 | 0.00 | 86 | 1010.9 |
| 20260506071740 | 15 | 112 | 1.6 | 1.6 | 0.00 | 0.00 | 0.00 | 87 | 1011.0 |
| 20260506070740 | 13 | 135 | 0.0 | 0.0 | 0.00 | 0.00 | 0.00 | 89 | 1011.1 |
| 20260506070241 | 13 | 202 | 0.0 | 0.0 | 0.00 | 0.00 | 0.00 | 89 | 1011.3 |
| 20260506062240 | 12 | 22 | 0.0 | 0.0 | 0.00 | 0.00 | 0.00 | 89 | 1011.0 |
| 20260506061737 | 12 | 22 | 0.0 | 0.0 | 0.00 | 0.00 | 0.00 | 88 | 1011.0 |
| 20260506061237 | 12 | 22 | 0.0 | 0.0 | 0.00 | 0.00 | 0.00 | 88 | 1010.9 |
| 20260506060736 | 12 | 202 | 0.0 | 1.6 | 0.00 | 0.00 | 0.00 | 88 | 1010.9 |
| 20260506060237 | 12 | 225 | 1.6 | 1.6 | 0.00 | 0.00 | 0.00 | 88 | 1010.9 |
| 20260506051234 | 10 | 225 | 0.0 | 0.0 | 0.00 | 0.00 | 0.00 | 88 | 1010.9 |
| 20260506050733 | 10 | 22 | 0.0 | 0.0 | 0.00 | 0.00 | 0.00 | 88 | 1010.7 |
| 20260506050234 | 10 | 22 | 0.0 | 0.0 | 0.00 | 0.00 | 0.00 | 88 | 1010.9 |
| 20260506044732 | 10 | 22 | 0.0 | 0.0 | 0.00 | 0.00 | 0.00 | 88 | 1010.9 |
| 20260506044234 | 10 | 22 | 0.0 | 0.0 | 0.00 | 0.00 | 0.00 | 88 | 1010.8 |
| 20260506043630 | 10 | 0 | 0.0 | 0.0 | 0.00 | 0.00 | 0.00 | 88 | 1010.8 |
| 20260506042630 | 11 | 0 | 0.0 | 0.0 | 0.00 | 0.00 | 0.00 | 87 | 1010.9 |
| 20260506041629 | 11 | 22 | 0.0 | 0.0 | 0.00 | 0.00 | 0.00 | 86 | 1010.8 |
| 20260506041130 | 11 | 22 | 0.0 | 0.0 | 0.00 | 0.00 | 0.00 | 86 | 1010.8 |
| 20260506040628 | 11 | 22 | 0.0 | 0.0 | 0.00 | 0.00 | 0.00 | 86 | 1010.8 |
| 20260506040131 | 11 | 22 | 0.0 | 0.0 | 0.00 | 0.00 | 0.00 | 86 | 1010.9 |
| 20260506035628 | 11 | 22 | 0.0 | 0.0 | 0.00 | 0.00 | 0.00 | 85 | 1010.9 |
| 20260506034627 | 12 | 22 | 0.0 | 0.0 | 0.00 | 0.00 | 0.00 | 85 | 1010.8 |
| 20260506034128 | 12 | 225 | 0.0 | 0.0 | 0.00 | 0.00 | 0.00 | 85 | 1010.9 |
| 20260506033627 | 12 | 225 | 0.0 | 0.0 | 0.00 | 0.00 | 0.00 | 85 | 1010.9 |
| 20260506032626 | 12 | 157 | 1.6 | 1.6 | 0.00 | 0.00 | 0.00 | 85 | 1010.9 |
| 20260506031626 | 12 | 202 | 3.2 | 3.2 | 0.00 | 0.00 | 0.00 | 85 | 1010.8 |
| 20260506030625 | 13 | 225 | 0.0 | 0.0 | 0.00 | 0.00 | 0.00 | 85 | 1010.9 |
| 20260506030126 | 13 | 247 | 0.0 | 0.0 | 0.00 | 0.00 | 0.00 | 84 | 1010.9 |
| 20260506025624 | 13 | 247 | 0.0 | 0.0 | 0.00 | 0.00 | 0.00 | 84 | 1011.0 |
| 20260506024122 | 13 | 315 | 0.0 | 0.0 | 0.00 | 0.00 | 0.00 | 84 | 1011.0 |
| 20260506023626 | 13 | 247 | 0.0 | 3.2 | 0.00 | 0.00 | 0.00 | 84 | 1011.1 |
| 20260506023122 | 13 | 180 | 3.2 | 3.2 | 0.00 | 0.00 | 0.00 | 84 | 1011.2 |
| 20260506022121 | 13 | 247 | 0.0 | 0.0 | 0.00 | 0.00 | 0.00 | 84 | 1011.3 |
| 20260506021622 | 13 | 247 | 0.0 | 0.0 | 0.00 | 0.00 | 0.00 | 84 | 1011.4 |
| 20260506021120 | 13 | 202 | 0.0 | 0.0 | 0.00 | 0.00 | 0.00 | 84 | 1011.4 |
| 20260506020120 | 13 | 202 | 0.0 | 0.0 | 0.00 | 0.00 | 0.00 | 84 | 1011.5 |
| 20260506015621 | 13 | 202 | 0.0 | 0.0 | 0.00 | 0.00 | 0.00 | 84 | 1011.4 |
| 20260506015119 | 13 | 202 | 0.0 | 0.0 | 0.00 | 0.00 | 0.00 | 84 | 1011.4 |
| 20260506014623 | 13 | 292 | 0.0 | 0.0 | 0.00 | 0.00 | 0.00 | 84 | 1011.3 |
| 20260506014119 | 13 | 292 | 0.0 | 0.0 | 0.00 | 0.00 | 0.00 | 84 | 1011.3 |
| 20260506013619 | 13 | 247 | 0.0 | 0.0 | 0.00 | 0.00 | 0.00 | 84 | 1011.2 |
| 20260506012917 | 13 | 270 | 0.0 | 3.2 | 0.00 | 0.00 | 0.00 | 84 | 1011.1 |
| 20260506012417 | 13 | 292 | 0.0 | 3.2 | 0.00 | 0.00 | 0.00 | 84 | 1011.1 |
| 20260506011916 | 13 | 247 | 3.2 | 3.2 | 0.00 | 0.00 | 0.00 | 84 | 1011.1 |
| 20260506011418 | 13 | 225 | 0.0 | 0.0 | 0.00 | 0.00 | 0.00 | 84 | 1011.2 |
| 20260506010916 | 13 | 180 | 0.0 | 4.8 | 0.00 | 0.00 | 0.00 | 84 | 1011.0 |
| 20260506010416 | 13 | 247 | 4.8 | 4.8 | 0.00 | 0.00 | 0.00 | 84 | 1011.0 |
| 20260506005915 | 13 | 270 | 0.0 | 0.0 | 0.00 | 0.00 | 0.00 | 84 | 1011.0 |
| 20260506005416 | 13 | 202 | 0.0 | 0.0 | 0.00 | 0.00 | 0.00 | 84 | 1011.1 |
| 20260506004914 | 13 | 202 | 0.0 | 3.2 | 0.00 | 0.00 | 0.00 | 84 | 1011.0 |
| 20260506004415 | 12 | 180 | 0.0 | 0.0 | 0.00 | 0.00 | 0.00 | 84 | 1011.0 |
| 20260506003914 | 12 | 202 | 0.0 | 0.0 | 0.00 | 0.00 | 0.00 | 84 | 1011.1 |
| 20260506003415 | 12 | 292 | 0.0 | 3.2 | 0.00 | 0.00 | 0.00 | 84 | 1010.9 |
| 20260506002913 | 12 | 270 | 3.2 | 3.2 | 0.00 | 0.00 | 0.00 | 84 | 1011.1 |
| 20260506002414 | 12 | 225 | 0.0 | 0.0 | 0.00 | 0.00 | 0.00 | 83 | 1011.2 |
| 20260506001913 | 12 | 225 | 0.0 | 0.0 | 0.00 | 0.00 | 0.00 | 83 | 1011.1 |
| 20260506001413 | 12 | 135 | 0.0 | 0.0 | 0.00 | 0.00 | 0.00 | 83 | 1011.1 |
| 20260506000912 | 12 | 247 | 0.0 | 0.0 | 0.00 | 0.00 | 0.00 | 83 | 1011.2 |
| 20260506000413 | 12 | 202 | 0.0 | 0.0 | 0.00 | 0.00 | 0.00 | 83 | 1011.3 |
| 20260505235912 | 12 | 202 | 0.0 | 0.0 | 0.00 | 0.00 | 0.00 | 83 | 1011.3 |
| 20260505235412 | 12 | 202 | 0.0 | 0.0 | 0.00 | 0.00 | 0.00 | 83 | 1011.4 |
| 20260505234911 | 13 | 202 | 0.0 | 0.0 | 0.00 | 0.00 | 0.00 | 83 | 1011.5 |
| 20260505234412 | 13 | 292 | 0.0 | 0.0 | 0.00 | 0.00 | 0.00 | 82 | 1011.7 |
| 20260505233910 | 13 | 0 | 0.0 | 0.0 | 0.00 | 0.00 | 0.00 | 82 | 1011.7 |
| 20260505233411 | 13 | 157 | 0.0 | 0.0 | 0.00 | 0.00 | 0.00 | 82 | 1011.6 |
| 20260505232910 | 13 | 22 | 0.0 | 3.2 | 0.00 | 0.00 | 0.00 | 82 | 1011.6 |
| 20260505231909 | 13 | 22 | 0.0 | 0.0 | 0.00 | 0.00 | 0.00 | 82 | 1011.7 |
| 20260505231410 | 13 | 292 | 0.0 | 0.0 | 0.00 | 0.00 | 0.00 | 81 | 1011.7 |
| 20260505230909 | 13 | 315 | 0.0 | 3.2 | 0.00 | 0.00 | 0.00 | 81 | 1011.7 |
| 20260505230409 | 13 | 202 | 3.2 | 3.2 | 0.00 | 0.00 | 0.00 | 81 | 1011.7 |
| 20260505225908 | 13 | 315 | 1.6 | 4.8 | 0.00 | 0.00 | 0.00 | 81 | 1011.7 |
| 20260505224908 | 13 | 315 | 0.0 | 3.2 | 0.00 | 0.00 | 0.00 | 81 | 1011.9 |
| 20260505224408 | 13 | 270 | 3.2 | 3.2 | 0.00 | 0.00 | 0.00 | 81 | 1011.9 |
| 20260505223907 | 13 | 202 | 3.2 | 3.2 | 0.00 | 0.00 | 0.00 | 81 | 1012.0 |
| 20260505223409 | 13 | 292 | 0.0 | 11.3 | 0.00 | 0.00 | 0.00 | 81 | 1012.0 |
| 20260505222906 | 13 | 292 | 11.3 | 11.3 | 0.00 | 0.00 | 0.00 | 81 | 1012.1 |
| 20260505222407 | 13 | 270 | 0.0 | 0.0 | 0.00 | 0.00 | 0.00 | 81 | 1012.1 |
| 20260505221906 | 13 | 180 | 0.0 | 0.0 | 0.00 | 0.00 | 0.00 | 81 | 1012.0 |
| 20260505221407 | 13 | 292 | 0.0 | 1.6 | 0.00 | 0.00 | 0.00 | 81 | 1012.1 |
| 20260505220905 | 13 | 315 | 1.6 | 1.6 | 0.00 | 0.00 | 0.00 | 81 | 1012.1 |
| 20260505220406 | 13 | 292 | 0.0 | 1.6 | 0.00 | 0.00 | 0.00 | 81 | 1012.1 |
| 20260505215905 | 13 | 292 | 1.6 | 6.4 | 0.00 | 0.00 | 0.00 | 81 | 1012.0 |
| 20260505215405 | 13 | 292 | 6.4 | 6.4 | 0.00 | 0.00 | 0.00 | 81 | 1012.1 |
| 20260505214904 | 13 | 270 | 0.0 | 3.2 | 0.00 | 0.00 | 0.00 | 81 | 1012.1 |
| 20260505214405 | 13 | 247 | 1.6 | 1.6 | 0.00 | 0.00 | 0.00 | 81 | 1012.2 |
| 20260505213904 | 13 | 292 | 0.0 | 4.8 | 0.00 | 0.00 | 0.00 | 81 | 1012.2 |
| 20260505213404 | 13 | 225 | 4.8 | 4.8 | 0.00 | 0.00 | 0.00 | 81 | 1012.2 |
| 20260505212903 | 13 | 180 | 4.8 | 4.8 | 0.00 | 0.00 | 0.00 | 81 | 1012.3 |
| 20260505211903 | 13 | 247 | 0.0 | 1.6 | 0.00 | 0.00 | 0.00 | 81 | 1012.3 |
| 20260505211403 | 13 | 202 | 1.6 | 1.6 | 0.00 | 0.00 | 0.00 | 81 | 1012.2 |
| 20260505210902 | 13 | 292 | 0.0 | 6.4 | 0.00 | 0.00 | 0.00 | 82 | 1012.2 |
| 20260505210403 | 13 | 337 | 0.0 | 1.6 | 0.00 | 0.00 | 0.00 | 82 | 1012.4 |
| 20260505205901 | 13 | 270 | 0.0 | 0.0 | 0.00 | 0.00 | 0.00 | 82 | 1012.3 |
| 20260505205402 | 13 | 247 | 0.0 | 3.2 | 0.00 | 0.00 | 0.00 | 82 | 1012.4 |
| 20260505204901 | 13 | 315 | 0.0 | 3.2 | 0.00 | 0.00 | 0.00 | 82 | 1012.3 |
| 20260505204401 | 13 | 292 | 0.0 | 0.0 | 0.00 | 0.00 | 0.00 | 82 | 1012.2 |
| 20260505203900 | 13 | 202 | 0.0 | 0.0 | 0.00 | 0.00 | 0.00 | 83 | 1012.3 |
| 20260505203401 | 13 | 337 | 0.0 | 0.0 | 0.00 | 0.00 | 0.00 | 82 | 1012.3 |
| 20260505202900 | 13 | 135 | 0.0 | 0.0 | 0.00 | 0.00 | 0.00 | 82 | 1012.3 |
| 20260505201859 | 13 | 315 | 0.0 | 0.0 | 0.00 | 0.00 | 0.00 | 83 | 1012.4 |
| 20260505201400 | 13 | 315 | 0.0 | 0.0 | 0.00 | 0.00 | 0.00 | 82 | 1012.4 |
| 20260505200858 | 13 | 247 | 0.0 | 0.0 | 0.00 | 0.00 | 0.00 | 82 | 1012.3 |
| 20260505200359 | 13 | 337 | 0.0 | 4.8 | 0.00 | 0.00 | 0.00 | 82 | 1012.4 |
| 20260505195922 | 13 | 315 | 0.0 | 1.6 | 0.00 | 0.00 | 0.00 | 82 | 1012.3 |
| 20260505195359 | 13 | 292 | 0.0 | 0.0 | 0.00 | 0.00 | 0.00 | 82 | 1012.3 |
| 20260505194857 | 13 | 292 | 0.0 | 0.0 | 0.00 | 0.00 | 0.00 | 83 | 1012.2 |
| 20260505194405 | 13 | 270 | 0.0 | 1.6 | 0.00 | 0.00 | 0.00 | 83 | 1012.2 |
| 20260505193857 | 13 | 225 | 1.6 | 1.6 | 0.00 | 0.00 | 0.00 | 83 | 1012.2 |
| 20260505193357 | 13 | 292 | 0.0 | 0.0 | 0.00 | 0.00 | 0.00 | 83 | 1012.1 |
| 20260505192555 | 13 | 270 | 0.0 | 0.0 | 0.00 | 0.00 | 0.00 | 83 | 1012.1 |